sensor_id;sensor_type;location;lat;lon;timestamp;P1;durP1;ratioP1;P2;durP2;ratioP2
69629;SDS011;56857;52.212;5.496;2023-03-19T00:01:26;5.30;;;2.30;;
69629;SDS011;56857;52.212;5.496;2023-03-19T00:03:52;5.00;;;2.15;;
69629;SDS011;56857;52.212;5.496;2023-03-19T00:06:18;6.05;;;2.50;;
69629;SDS011;56857;52.212;5.496;2023-03-19T00:08:43;5.25;;;2.20;;
69629;SDS011;56857;52.212;5.496;2023-03-19T00:11:09;5.25;;;2.50;;
69629;SDS011;56857;52.212;5.496;2023-03-19T00:13:36;6.05;;;2.58;;
69629;SDS011;56857;52.212;5.496;2023-03-19T00:16:01;5.65;;;2.38;;
69629;SDS011;56857;52.212;5.496;2023-03-19T00:18:26;5.90;;;2.50;;
69629;SDS011;56857;52.212;5.496;2023-03-19T00:20:52;6.40;;;3.22;;
69629;SDS011;56857;52.212;5.496;2023-03-19T00:23:17;5.35;;;2.50;;
69629;SDS011;56857;52.212;5.496;2023-03-19T00:25:43;7.15;;;2.92;;
69629;SDS011;56857;52.212;5.496;2023-03-19T00:28:08;7.35;;;2.47;;
69629;SDS011;56857;52.212;5.496;2023-03-19T00:30:34;6.55;;;2.53;;
69629;SDS011;56857;52.212;5.496;2023-03-19T00:33:00;5.10;;;2.58;;
69629;SDS011;56857;52.212;5.496;2023-03-19T00:35:25;6.07;;;2.72;;
69629;SDS011;56857;52.212;5.496;2023-03-19T00:37:51;6.00;;;2.70;;
69629;SDS011;56857;52.212;5.496;2023-03-19T00:40:16;6.15;;;3.15;;
69629;SDS011;56857;52.212;5.496;2023-03-19T00:42:42;8.30;;;3.40;;
69629;SDS011;56857;52.212;5.496;2023-03-19T00:45:08;7.18;;;2.70;;
69629;SDS011;56857;52.212;5.496;2023-03-19T00:47:33;6.38;;;2.67;;
69629;SDS011;56857;52.212;5.496;2023-03-19T00:49:59;5.95;;;2.92;;
69629;SDS011;56857;52.212;5.496;2023-03-19T00:52:24;5.93;;;3.15;;
69629;SDS011;56857;52.212;5.496;2023-03-19T00:54:49;7.22;;;2.88;;
69629;SDS011;56857;52.212;5.496;2023-03-19T00:57:15;6.38;;;2.90;;
69629;SDS011;56857;52.212;5.496;2023-03-19T00:59:40;5.32;;;2.60;;
69629;SDS011;56857;52.212;5.496;2023-03-19T01:02:05;7.50;;;3.40;;
69629;SDS011;56857;52.212;5.496;2023-03-19T01:04:31;6.88;;;2.85;;
69629;SDS011;56857;52.212;5.496;2023-03-19T01:06:57;7.40;;;2.80;;
69629;SDS011;56857;52.212;5.496;2023-03-19T01:09:23;7.65;;;3.10;;
69629;SDS011;56857;52.212;5.496;2023-03-19T01:11:48;7.22;;;3.03;;
69629;SDS011;56857;52.212;5.496;2023-03-19T01:14:14;7.87;;;3.27;;
69629;SDS011;56857;52.212;5.496;2023-03-19T01:16:41;6.68;;;3.50;;
69629;SDS011;56857;52.212;5.496;2023-03-19T01:19:07;8.75;;;3.30;;
69629;SDS011;56857;52.212;5.496;2023-03-19T01:21:32;6.35;;;3.13;;
69629;SDS011;56857;52.212;5.496;2023-03-19T01:23:58;8.97;;;3.30;;
69629;SDS011;56857;52.212;5.496;2023-03-19T01:26:23;7.20;;;3.40;;
69629;SDS011;56857;52.212;5.496;2023-03-19T01:28:49;5.75;;;2.97;;
69629;SDS011;56857;52.212;5.496;2023-03-19T01:31:15;7.05;;;3.20;;
69629;SDS011;56857;52.212;5.496;2023-03-19T01:33:40;7.30;;;3.20;;
69629;SDS011;56857;52.212;5.496;2023-03-19T01:36:05;5.30;;;2.95;;
69629;SDS011;56857;52.212;5.496;2023-03-19T01:38:31;6.72;;;3.40;;
69629;SDS011;56857;52.212;5.496;2023-03-19T01:40:56;7.63;;;3.30;;
69629;SDS011;56857;52.212;5.496;2023-03-19T01:43:22;6.78;;;3.58;;
69629;SDS011;56857;52.212;5.496;2023-03-19T01:45:50;8.13;;;3.80;;
69629;SDS011;56857;52.212;5.496;2023-03-19T01:48:22;7.30;;;3.63;;
69629;SDS011;56857;52.212;5.496;2023-03-19T01:50:52;7.03;;;3.17;;
69629;SDS011;56857;52.212;5.496;2023-03-19T01:53:18;8.32;;;3.97;;
69629;SDS011;56857;52.212;5.496;2023-03-19T01:55:48;6.28;;;3.50;;
69629;SDS011;56857;52.212;5.496;2023-03-19T01:58:14;9.35;;;3.30;;
69629;SDS011;56857;52.212;5.496;2023-03-19T02:00:40;9.73;;;4.00;;
69629;SDS011;56857;52.212;5.496;2023-03-19T02:03:06;6.72;;;3.35;;
69629;SDS011;56857;52.212;5.496;2023-03-19T02:05:32;7.50;;;3.70;;
69629;SDS011;56857;52.212;5.496;2023-03-19T02:08:02;8.00;;;3.92;;
69629;SDS011;56857;52.212;5.496;2023-03-19T02:10:31;6.82;;;3.65;;
69629;SDS011;56857;52.212;5.496;2023-03-19T02:12:57;7.45;;;3.95;;
69629;SDS011;56857;52.212;5.496;2023-03-19T02:15:23;7.60;;;3.63;;
69629;SDS011;56857;52.212;5.496;2023-03-19T02:17:48;7.40;;;4.03;;
69629;SDS011;56857;52.212;5.496;2023-03-19T02:20:20;7.00;;;3.83;;
69629;SDS011;56857;52.212;5.496;2023-03-19T02:25:49;6.57;;;3.42;;
69629;SDS011;56857;52.212;5.496;2023-03-19T02:28:20;7.15;;;3.90;;
69629;SDS011;56857;52.212;5.496;2023-03-19T02:30:47;7.90;;;3.92;;
69629;SDS011;56857;52.212;5.496;2023-03-19T02:33:13;7.40;;;3.90;;
69629;SDS011;56857;52.212;5.496;2023-03-19T02:35:41;7.50;;;4.20;;
69629;SDS011;56857;52.212;5.496;2023-03-19T02:38:07;7.30;;;3.88;;
69629;SDS011;56857;52.212;5.496;2023-03-19T02:40:35;8.43;;;4.35;;
69629;SDS011;56857;52.212;5.496;2023-03-19T02:43:04;7.32;;;3.90;;
69629;SDS011;56857;52.212;5.496;2023-03-19T02:45:30;8.07;;;4.10;;
69629;SDS011;56857;52.212;5.496;2023-03-19T02:47:57;7.43;;;4.13;;
69629;SDS011;56857;52.212;5.496;2023-03-19T02:50:23;8.45;;;4.00;;
69629;SDS011;56857;52.212;5.496;2023-03-19T02:52:49;8.02;;;4.65;;
69629;SDS011;56857;52.212;5.496;2023-03-19T02:55:14;8.27;;;4.38;;
69629;SDS011;56857;52.212;5.496;2023-03-19T02:57:39;7.43;;;3.63;;
69629;SDS011;56857;52.212;5.496;2023-03-19T03:00:05;7.55;;;3.90;;
69629;SDS011;56857;52.212;5.496;2023-03-19T03:02:31;7.55;;;3.72;;
69629;SDS011;56857;52.212;5.496;2023-03-19T03:04:56;7.85;;;4.20;;
69629;SDS011;56857;52.212;5.496;2023-03-19T03:07:22;8.10;;;3.95;;
69629;SDS011;56857;52.212;5.496;2023-03-19T03:09:47;7.50;;;4.13;;
69629;SDS011;56857;52.212;5.496;2023-03-19T03:12:12;8.07;;;4.20;;
69629;SDS011;56857;52.212;5.496;2023-03-19T03:14:38;7.80;;;4.35;;
69629;SDS011;56857;52.212;5.496;2023-03-19T03:17:03;7.57;;;3.78;;
69629;SDS011;56857;52.212;5.496;2023-03-19T03:19:28;7.80;;;4.20;;
69629;SDS011;56857;52.212;5.496;2023-03-19T03:21:54;10.40;;;4.95;;
69629;SDS011;56857;52.212;5.496;2023-03-19T03:24:20;8.00;;;4.40;;
69629;SDS011;56857;52.212;5.496;2023-03-19T03:26:45;8.77;;;4.60;;
69629;SDS011;56857;52.212;5.496;2023-03-19T03:29:11;10.35;;;4.68;;
69629;SDS011;56857;52.212;5.496;2023-03-19T03:31:36;7.97;;;4.32;;
69629;SDS011;56857;52.212;5.496;2023-03-19T03:34:02;8.52;;;4.90;;
69629;SDS011;56857;52.212;5.496;2023-03-19T03:36:27;8.70;;;4.50;;
69629;SDS011;56857;52.212;5.496;2023-03-19T03:38:53;6.82;;;3.90;;
69629;SDS011;56857;52.212;5.496;2023-03-19T03:41:19;8.05;;;4.32;;
69629;SDS011;56857;52.212;5.496;2023-03-19T03:43:45;9.98;;;4.20;;
69629;SDS011;56857;52.212;5.496;2023-03-19T03:46:11;9.25;;;4.78;;
69629;SDS011;56857;52.212;5.496;2023-03-19T03:48:36;8.43;;;4.93;;
69629;SDS011;56857;52.212;5.496;2023-03-19T03:51:01;9.93;;;4.57;;
69629;SDS011;56857;52.212;5.496;2023-03-19T03:53:27;8.25;;;4.63;;
69629;SDS011;56857;52.212;5.496;2023-03-19T03:55:53;9.05;;;4.15;;
69629;SDS011;56857;52.212;5.496;2023-03-19T03:58:19;9.43;;;4.93;;
69629;SDS011;56857;52.212;5.496;2023-03-19T04:00:44;7.50;;;4.35;;
69629;SDS011;56857;52.212;5.496;2023-03-19T04:03:09;8.05;;;4.65;;
69629;SDS011;56857;52.212;5.496;2023-03-19T04:05:35;9.30;;;5.05;;
69629;SDS011;56857;52.212;5.496;2023-03-19T04:08:00;11.40;;;5.85;;
69629;SDS011;56857;52.212;5.496;2023-03-19T04:10:25;9.63;;;5.22;;
69629;SDS011;56857;52.212;5.496;2023-03-19T04:12:51;10.63;;;6.35;;
69629;SDS011;56857;52.212;5.496;2023-03-19T04:15:16;9.65;;;5.50;;
69629;SDS011;56857;52.212;5.496;2023-03-19T04:17:41;9.25;;;5.80;;
69629;SDS011;56857;52.212;5.496;2023-03-19T04:20:07;10.87;;;5.83;;
69629;SDS011;56857;52.212;5.496;2023-03-19T04:22:33;10.32;;;5.82;;
69629;SDS011;56857;52.212;5.496;2023-03-19T04:24:58;10.45;;;6.30;;
69629;SDS011;56857;52.212;5.496;2023-03-19T04:27:24;10.85;;;6.05;;
69629;SDS011;56857;52.212;5.496;2023-03-19T04:29:49;9.65;;;6.15;;
69629;SDS011;56857;52.212;5.496;2023-03-19T04:32:14;10.38;;;5.78;;
69629;SDS011;56857;52.212;5.496;2023-03-19T04:34:40;11.55;;;6.28;;
69629;SDS011;56857;52.212;5.496;2023-03-19T04:37:05;13.80;;;6.90;;
69629;SDS011;56857;52.212;5.496;2023-03-19T04:39:31;13.10;;;6.55;;
69629;SDS011;56857;52.212;5.496;2023-03-19T04:41:56;11.23;;;6.78;;
69629;SDS011;56857;52.212;5.496;2023-03-19T04:44:22;10.60;;;6.43;;
69629;SDS011;56857;52.212;5.496;2023-03-19T04:46:47;10.43;;;6.60;;
69629;SDS011;56857;52.212;5.496;2023-03-19T04:49:12;12.33;;;6.83;;
69629;SDS011;56857;52.212;5.496;2023-03-19T04:51:37;13.70;;;6.32;;
69629;SDS011;56857;52.212;5.496;2023-03-19T04:54:03;11.07;;;6.80;;
69629;SDS011;56857;52.212;5.496;2023-03-19T04:56:29;12.38;;;6.43;;
69629;SDS011;56857;52.212;5.496;2023-03-19T04:58:54;11.70;;;6.60;;
69629;SDS011;56857;52.212;5.496;2023-03-19T05:01:19;17.15;;;7.72;;
69629;SDS011;56857;52.212;5.496;2023-03-19T05:03:45;13.33;;;7.43;;
69629;SDS011;56857;52.212;5.496;2023-03-19T05:06:10;12.00;;;7.88;;
69629;SDS011;56857;52.212;5.496;2023-03-19T05:08:35;13.25;;;7.45;;
69629;SDS011;56857;52.212;5.496;2023-03-19T05:11:01;12.70;;;7.60;;
69629;SDS011;56857;52.212;5.496;2023-03-19T05:13:26;11.93;;;7.10;;
69629;SDS011;56857;52.212;5.496;2023-03-19T05:15:52;13.45;;;7.63;;
69629;SDS011;56857;52.212;5.496;2023-03-19T05:18:18;11.65;;;6.95;;
69629;SDS011;56857;52.212;5.496;2023-03-19T05:20:43;11.85;;;7.30;;
69629;SDS011;56857;52.212;5.496;2023-03-19T05:23:09;11.38;;;7.57;;
69629;SDS011;56857;52.212;5.496;2023-03-19T05:25:34;13.43;;;7.13;;
69629;SDS011;56857;52.212;5.496;2023-03-19T05:27:59;11.38;;;6.80;;
69629;SDS011;56857;52.212;5.496;2023-03-19T05:30:25;12.15;;;7.30;;
69629;SDS011;56857;52.212;5.496;2023-03-19T05:32:50;13.38;;;8.27;;
69629;SDS011;56857;52.212;5.496;2023-03-19T05:35:15;12.90;;;8.18;;
69629;SDS011;56857;52.212;5.496;2023-03-19T05:37:41;12.98;;;7.60;;
69629;SDS011;56857;52.212;5.496;2023-03-19T05:40:06;13.68;;;7.60;;
69629;SDS011;56857;52.212;5.496;2023-03-19T05:42:32;14.93;;;8.02;;
69629;SDS011;56857;52.212;5.496;2023-03-19T05:44:58;13.70;;;8.07;;
69629;SDS011;56857;52.212;5.496;2023-03-19T05:47:23;13.60;;;8.17;;
69629;SDS011;56857;52.212;5.496;2023-03-19T05:49:49;14.93;;;8.88;;
69629;SDS011;56857;52.212;5.496;2023-03-19T05:52:14;14.23;;;8.30;;
69629;SDS011;56857;52.212;5.496;2023-03-19T05:54:39;15.93;;;8.93;;
69629;SDS011;56857;52.212;5.496;2023-03-19T05:57:05;15.02;;;8.77;;
69629;SDS011;56857;52.212;5.496;2023-03-19T05:59:30;14.85;;;8.98;;
69629;SDS011;56857;52.212;5.496;2023-03-19T06:01:55;14.57;;;8.98;;
69629;SDS011;56857;52.212;5.496;2023-03-19T06:04:21;14.68;;;8.85;;
69629;SDS011;56857;52.212;5.496;2023-03-19T06:06:46;13.48;;;8.50;;
69629;SDS011;56857;52.212;5.496;2023-03-19T06:09:12;15.50;;;8.57;;
69629;SDS011;56857;52.212;5.496;2023-03-19T06:11:37;16.20;;;8.95;;
69629;SDS011;56857;52.212;5.496;2023-03-19T06:14:02;15.80;;;10.02;;
69629;SDS011;56857;52.212;5.496;2023-03-19T06:16:28;16.15;;;9.50;;
69629;SDS011;56857;52.212;5.496;2023-03-19T06:18:53;16.08;;;9.80;;
69629;SDS011;56857;52.212;5.496;2023-03-19T06:21:18;18.90;;;10.18;;
69629;SDS011;56857;52.212;5.496;2023-03-19T06:23:44;16.08;;;10.13;;
69629;SDS011;56857;52.212;5.496;2023-03-19T06:26:09;18.60;;;10.77;;
69629;SDS011;56857;52.212;5.496;2023-03-19T06:28:35;16.80;;;9.80;;
69629;SDS011;56857;52.212;5.496;2023-03-19T06:31:00;18.45;;;10.23;;
69629;SDS011;56857;52.212;5.496;2023-03-19T06:33:25;17.43;;;9.53;;
69629;SDS011;56857;52.212;5.496;2023-03-19T06:35:51;18.02;;;11.40;;
69629;SDS011;56857;52.212;5.496;2023-03-19T06:38:16;18.23;;;10.40;;
69629;SDS011;56857;52.212;5.496;2023-03-19T06:40:41;17.70;;;10.43;;
69629;SDS011;56857;52.212;5.496;2023-03-19T06:43:06;18.67;;;10.75;;
69629;SDS011;56857;52.212;5.496;2023-03-19T06:45:32;17.85;;;10.68;;
69629;SDS011;56857;52.212;5.496;2023-03-19T06:47:57;19.67;;;11.38;;
69629;SDS011;56857;52.212;5.496;2023-03-19T06:50:22;15.88;;;10.65;;
69629;SDS011;56857;52.212;5.496;2023-03-19T06:52:48;18.27;;;11.63;;
69629;SDS011;56857;52.212;5.496;2023-03-19T06:55:13;16.55;;;10.00;;
69629;SDS011;56857;52.212;5.496;2023-03-19T06:57:38;18.10;;;11.05;;
69629;SDS011;56857;52.212;5.496;2023-03-19T07:00:04;18.47;;;11.73;;
69629;SDS011;56857;52.212;5.496;2023-03-19T07:02:31;22.27;;;11.57;;
69629;SDS011;56857;52.212;5.496;2023-03-19T07:04:56;19.27;;;11.60;;
69629;SDS011;56857;52.212;5.496;2023-03-19T07:07:21;20.75;;;12.18;;
69629;SDS011;56857;52.212;5.496;2023-03-19T07:09:47;20.00;;;11.93;;
69629;SDS011;56857;52.212;5.496;2023-03-19T07:12:12;21.08;;;12.73;;
69629;SDS011;56857;52.212;5.496;2023-03-19T07:14:38;19.52;;;11.80;;
69629;SDS011;56857;52.212;5.496;2023-03-19T07:17:03;22.17;;;12.27;;
69629;SDS011;56857;52.212;5.496;2023-03-19T07:19:28;22.45;;;12.32;;
69629;SDS011;56857;52.212;5.496;2023-03-19T07:21:54;22.75;;;13.02;;
69629;SDS011;56857;52.212;5.496;2023-03-19T07:24:19;24.90;;;14.13;;
69629;SDS011;56857;52.212;5.496;2023-03-19T07:26:44;25.90;;;14.75;;
69629;SDS011;56857;52.212;5.496;2023-03-19T07:29:10;26.77;;;15.13;;
69629;SDS011;56857;52.212;5.496;2023-03-19T07:31:36;26.03;;;15.00;;
69629;SDS011;56857;52.212;5.496;2023-03-19T07:34:01;28.25;;;14.73;;
69629;SDS011;56857;52.212;5.496;2023-03-19T07:36:30;25.48;;;14.55;;
69629;SDS011;56857;52.212;5.496;2023-03-19T07:38:55;29.35;;;16.25;;
69629;SDS011;56857;52.212;5.496;2023-03-19T07:41:21;33.63;;;17.63;;
69629;SDS011;56857;52.212;5.496;2023-03-19T07:43:46;35.78;;;18.70;;
69629;SDS011;56857;52.212;5.496;2023-03-19T07:46:11;39.97;;;20.83;;
69629;SDS011;56857;52.212;5.496;2023-03-19T07:48:37;39.58;;;20.73;;
69629;SDS011;56857;52.212;5.496;2023-03-19T07:51:02;46.20;;;22.08;;
69629;SDS011;56857;52.212;5.496;2023-03-19T07:53:27;44.75;;;22.73;;
69629;SDS011;56857;52.212;5.496;2023-03-19T07:55:53;43.00;;;22.00;;
69629;SDS011;56857;52.212;5.496;2023-03-19T07:58:18;45.05;;;22.55;;
69629;SDS011;56857;52.212;5.496;2023-03-19T08:00:44;49.58;;;22.48;;
69629;SDS011;56857;52.212;5.496;2023-03-19T08:03:09;46.20;;;23.08;;
69629;SDS011;56857;52.212;5.496;2023-03-19T08:05:34;38.47;;;20.63;;
69629;SDS011;56857;52.212;5.496;2023-03-19T08:08:00;34.70;;;19.50;;
69629;SDS011;56857;52.212;5.496;2023-03-19T08:10:25;33.60;;;19.25;;
69629;SDS011;56857;52.212;5.496;2023-03-19T08:12:50;32.25;;;18.20;;
69629;SDS011;56857;52.212;5.496;2023-03-19T08:15:16;37.85;;;18.58;;
69629;SDS011;56857;52.212;5.496;2023-03-19T08:17:41;34.28;;;17.70;;
69629;SDS011;56857;52.212;5.496;2023-03-19T08:20:10;36.20;;;19.20;;
69629;SDS011;56857;52.212;5.496;2023-03-19T08:22:37;33.35;;;17.75;;
69629;SDS011;56857;52.212;5.496;2023-03-19T08:25:04;33.38;;;18.05;;
69629;SDS011;56857;52.212;5.496;2023-03-19T08:27:30;32.25;;;16.27;;
69629;SDS011;56857;52.212;5.496;2023-03-19T08:29:56;29.55;;;16.63;;
69629;SDS011;56857;52.212;5.496;2023-03-19T08:32:22;28.42;;;15.65;;
69629;SDS011;56857;52.212;5.496;2023-03-19T08:34:47;32.45;;;15.80;;
69629;SDS011;56857;52.212;5.496;2023-03-19T08:37:13;27.75;;;14.63;;
69629;SDS011;56857;52.212;5.496;2023-03-19T08:39:38;30.63;;;16.35;;
69629;SDS011;56857;52.212;5.496;2023-03-19T08:42:04;27.30;;;14.93;;
69629;SDS011;56857;52.212;5.496;2023-03-19T08:44:29;25.73;;;14.23;;
69629;SDS011;56857;52.212;5.496;2023-03-19T08:46:54;27.13;;;14.73;;
69629;SDS011;56857;52.212;5.496;2023-03-19T08:49:20;25.17;;;14.75;;
69629;SDS011;56857;52.212;5.496;2023-03-19T08:51:45;30.73;;;15.37;;
69629;SDS011;56857;52.212;5.496;2023-03-19T08:54:10;27.05;;;14.85;;
69629;SDS011;56857;52.212;5.496;2023-03-19T08:56:37;24.55;;;14.63;;
69629;SDS011;56857;52.212;5.496;2023-03-19T08:59:02;24.45;;;13.57;;
69629;SDS011;56857;52.212;5.496;2023-03-19T09:01:27;29.27;;;15.23;;
69629;SDS011;56857;52.212;5.496;2023-03-19T09:03:53;29.05;;;15.57;;
69629;SDS011;56857;52.212;5.496;2023-03-19T09:06:18;32.10;;;15.63;;
69629;SDS011;56857;52.212;5.496;2023-03-19T09:08:43;30.83;;;16.03;;
69629;SDS011;56857;52.212;5.496;2023-03-19T09:11:09;32.00;;;17.08;;
69629;SDS011;56857;52.212;5.496;2023-03-19T09:13:34;30.50;;;16.10;;
69629;SDS011;56857;52.212;5.496;2023-03-19T09:16:00;29.15;;;16.13;;
69629;SDS011;56857;52.212;5.496;2023-03-19T09:18:25;29.92;;;15.18;;
69629;SDS011;56857;52.212;5.496;2023-03-19T09:20:51;29.75;;;16.40;;
69629;SDS011;56857;52.212;5.496;2023-03-19T09:23:17;29.20;;;14.25;;
69629;SDS011;56857;52.212;5.496;2023-03-19T09:25:44;24.52;;;13.75;;
69629;SDS011;56857;52.212;5.496;2023-03-19T09:28:09;27.00;;;13.30;;
69629;SDS011;56857;52.212;5.496;2023-03-19T09:30:34;22.98;;;13.18;;
69629;SDS011;56857;52.212;5.496;2023-03-19T09:33:00;24.40;;;14.02;;
69629;SDS011;56857;52.212;5.496;2023-03-19T09:35:25;26.88;;;13.55;;
69629;SDS011;56857;52.212;5.496;2023-03-19T09:37:51;25.42;;;13.23;;
69629;SDS011;56857;52.212;5.496;2023-03-19T09:40:21;22.75;;;13.27;;
69629;SDS011;56857;52.212;5.496;2023-03-19T09:42:56;25.90;;;13.90;;
69629;SDS011;56857;52.212;5.496;2023-03-19T09:45:31;27.40;;;13.73;;
69629;SDS011;56857;52.212;5.496;2023-03-19T09:47:58;23.80;;;12.80;;
69629;SDS011;56857;52.212;5.496;2023-03-19T09:50:29;24.73;;;13.35;;
69629;SDS011;56857;52.212;5.496;2023-03-19T09:58:16;24.63;;;13.27;;
69629;SDS011;56857;52.212;5.496;2023-03-19T10:00:50;25.20;;;13.43;;
69629;SDS011;56857;52.212;5.496;2023-03-19T10:17:18;24.90;;;12.52;;
69629;SDS011;56857;52.212;5.496;2023-03-19T10:19:56;28.63;;;14.07;;
69629;SDS011;56857;52.212;5.496;2023-03-19T10:22:31;25.23;;;13.60;;
69629;SDS011;56857;52.212;5.496;2023-03-19T10:25:10;24.38;;;13.65;;
69629;SDS011;56857;52.212;5.496;2023-03-19T10:27:40;25.83;;;13.93;;
69629;SDS011;56857;52.212;5.496;2023-03-19T10:30:11;27.10;;;14.38;;
69629;SDS011;56857;52.212;5.496;2023-03-19T10:32:43;26.58;;;14.50;;
69629;SDS011;56857;52.212;5.496;2023-03-19T10:35:21;28.67;;;15.05;;
69629;SDS011;56857;52.212;5.496;2023-03-19T10:37:51;22.83;;;13.52;;
69629;SDS011;56857;52.212;5.496;2023-03-19T10:40:25;23.27;;;12.40;;
69629;SDS011;56857;52.212;5.496;2023-03-19T10:43:03;20.48;;;12.05;;
69629;SDS011;56857;52.212;5.496;2023-03-19T10:45:37;25.48;;;12.55;;
69629;SDS011;56857;52.212;5.496;2023-03-19T10:48:03;23.48;;;12.95;;
69629;SDS011;56857;52.212;5.496;2023-03-19T10:50:45;26.60;;;13.32;;
69629;SDS011;56857;52.212;5.496;2023-03-19T10:55:46;25.57;;;13.03;;
69629;SDS011;56857;52.212;5.496;2023-03-19T10:58:19;23.02;;;13.10;;
69629;SDS011;56857;52.212;5.496;2023-03-19T11:00:49;23.10;;;13.15;;
69629;SDS011;56857;52.212;5.496;2023-03-19T11:03:28;27.20;;;13.20;;
69629;SDS011;56857;52.212;5.496;2023-03-19T11:06:03;24.30;;;13.48;;
69629;SDS011;56857;52.212;5.496;2023-03-19T11:09:49;21.90;;;13.20;;
69629;SDS011;56857;52.212;5.496;2023-03-19T11:11:52;22.17;;;13.00;;
69629;SDS011;56857;52.212;5.496;2023-03-19T11:14:31;26.85;;;13.73;;
69629;SDS011;56857;52.212;5.496;2023-03-19T11:17:15;22.50;;;12.00;;
69629;SDS011;56857;52.212;5.496;2023-03-19T11:19:41;20.63;;;12.60;;
69629;SDS011;56857;52.212;5.496;2023-03-19T11:22:16;23.73;;;12.70;;
69629;SDS011;56857;52.212;5.496;2023-03-19T11:24:55;23.92;;;13.88;;
69629;SDS011;56857;52.212;5.496;2023-03-19T11:27:31;21.40;;;11.57;;
69629;SDS011;56857;52.212;5.496;2023-03-19T11:29:58;21.60;;;11.88;;
69629;SDS011;56857;52.212;5.496;2023-03-19T11:32:26;21.85;;;12.10;;
69629;SDS011;56857;52.212;5.496;2023-03-19T11:35:28;18.98;;;10.73;;
69629;SDS011;56857;52.212;5.496;2023-03-19T11:37:58;20.55;;;10.73;;
69629;SDS011;56857;52.212;5.496;2023-03-19T11:45:59;22.70;;;10.57;;
69629;SDS011;56857;52.212;5.496;2023-03-19T11:51:18;21.20;;;10.00;;
69629;SDS011;56857;52.212;5.496;2023-03-19T11:54:04;20.30;;;10.07;;
69629;SDS011;56857;52.212;5.496;2023-03-19T12:10:27;27.00;;;12.70;;
69629;SDS011;56857;52.212;5.496;2023-03-19T12:13:16;25.85;;;13.18;;
69629;SDS011;56857;52.212;5.496;2023-03-19T12:16:05;23.30;;;12.10;;
69629;SDS011;56857;52.212;5.496;2023-03-19T12:18:44;22.17;;;11.15;;
69629;SDS011;56857;52.212;5.496;2023-03-19T12:24:05;23.00;;;12.02;;
69629;SDS011;56857;52.212;5.496;2023-03-19T12:26:47;24.67;;;12.75;;
69629;SDS011;56857;52.212;5.496;2023-03-19T12:32:10;23.88;;;11.25;;
69629;SDS011;56857;52.212;5.496;2023-03-19T12:34:54;31.08;;;13.98;;
69629;SDS011;56857;52.212;5.496;2023-03-19T12:42:56;23.58;;;12.60;;
69629;SDS011;56857;52.212;5.496;2023-03-19T12:45:32;25.52;;;13.65;;
69629;SDS011;56857;52.212;5.496;2023-03-19T12:48:05;23.63;;;11.95;;
69629;SDS011;56857;52.212;5.496;2023-03-19T12:50:36;23.15;;;11.43;;
69629;SDS011;56857;52.212;5.496;2023-03-19T12:53:06;21.60;;;11.10;;
69629;SDS011;56857;52.212;5.496;2023-03-19T12:55:52;20.30;;;9.95;;
69629;SDS011;56857;52.212;5.496;2023-03-19T13:01:31;22.65;;;11.15;;
69629;SDS011;56857;52.212;5.496;2023-03-19T13:04:19;25.95;;;12.95;;
69629;SDS011;56857;52.212;5.496;2023-03-19T13:06:49;24.52;;;12.60;;
69629;SDS011;56857;52.212;5.496;2023-03-19T13:09:28;23.55;;;11.75;;
69629;SDS011;56857;52.212;5.496;2023-03-19T13:12:10;23.92;;;12.65;;
69629;SDS011;56857;52.212;5.496;2023-03-19T13:15:01;24.13;;;12.15;;
69629;SDS011;56857;52.212;5.496;2023-03-19T13:19:57;20.30;;;9.50;;
69629;SDS011;56857;52.212;5.496;2023-03-19T13:27:29;23.05;;;10.35;;
69629;SDS011;56857;52.212;5.496;2023-03-19T13:32:27;21.77;;;10.50;;
69629;SDS011;56857;52.212;5.496;2023-03-19T13:37:39;24.30;;;10.98;;
69629;SDS011;56857;52.212;5.496;2023-03-19T13:40:34;22.80;;;10.82;;
69629;SDS011;56857;52.212;5.496;2023-03-19T13:45:45;22.02;;;9.73;;
69629;SDS011;56857;52.212;5.496;2023-03-19T13:51:04;25.15;;;10.77;;
69629;SDS011;56857;52.212;5.496;2023-03-19T13:56:18;23.15;;;10.80;;
69629;SDS011;56857;52.212;5.496;2023-03-19T13:58:46;24.48;;;10.48;;
69629;SDS011;56857;52.212;5.496;2023-03-19T14:03:55;22.92;;;10.07;;
69629;SDS011;56857;52.212;5.496;2023-03-19T14:06:41;19.70;;;9.10;;
69629;SDS011;56857;52.212;5.496;2023-03-19T14:12:30;22.08;;;8.63;;
69629;SDS011;56857;52.212;5.496;2023-03-19T14:17:35;25.67;;;9.68;;
69629;SDS011;56857;52.212;5.496;2023-03-19T14:25:13;25.75;;;10.70;;
69629;SDS011;56857;52.212;5.496;2023-03-19T14:27:48;85.95;;;13.65;;
69629;SDS011;56857;52.212;5.496;2023-03-19T14:30:37;25.83;;;10.60;;
69629;SDS011;56857;52.212;5.496;2023-03-19T14:33:14;26.55;;;10.38;;
69629;SDS011;56857;52.212;5.496;2023-03-19T14:35:46;26.90;;;9.93;;
69629;SDS011;56857;52.212;5.496;2023-03-19T14:38:26;27.23;;;11.02;;
69629;SDS011;56857;52.212;5.496;2023-03-19T14:40:59;24.23;;;10.77;;
69629;SDS011;56857;52.212;5.496;2023-03-19T14:54:29;268.95;;;22.50;;
69629;SDS011;56857;52.212;5.496;2023-03-19T14:57:05;70.95;;;15.27;;
69629;SDS011;56857;52.212;5.496;2023-03-19T14:59:35;126.55;;;17.23;;
69629;SDS011;56857;52.212;5.496;2023-03-19T15:02:02;65.40;;;13.23;;
69629;SDS011;56857;52.212;5.496;2023-03-19T15:04:32;24.48;;;10.98;;
69629;SDS011;56857;52.212;5.496;2023-03-19T15:06:58;25.42;;;11.85;;
69629;SDS011;56857;52.212;5.496;2023-03-19T15:09:25;24.80;;;12.35;;
69629;SDS011;56857;52.212;5.496;2023-03-19T15:12:00;26.15;;;12.73;;
69629;SDS011;56857;52.212;5.496;2023-03-19T15:14:48;23.42;;;11.27;;
69629;SDS011;56857;52.212;5.496;2023-03-19T15:17:36;24.80;;;12.35;;
69629;SDS011;56857;52.212;5.496;2023-03-19T15:20:02;22.20;;;11.55;;
69629;SDS011;56857;52.212;5.496;2023-03-19T15:22:38;25.20;;;12.38;;
69629;SDS011;56857;52.212;5.496;2023-03-19T15:25:13;28.65;;;13.55;;
69629;SDS011;56857;52.212;5.496;2023-03-19T15:27:40;24.80;;;13.13;;
69629;SDS011;56857;52.212;5.496;2023-03-19T15:30:18;24.65;;;13.07;;
69629;SDS011;56857;52.212;5.496;2023-03-19T15:32:45;28.50;;;13.45;;
69629;SDS011;56857;52.212;5.496;2023-03-19T15:35:11;28.42;;;13.98;;
69629;SDS011;56857;52.212;5.496;2023-03-19T15:37:40;30.67;;;15.45;;
69629;SDS011;56857;52.212;5.496;2023-03-19T15:40:09;28.00;;;14.23;;
69629;SDS011;56857;52.212;5.496;2023-03-19T15:42:37;26.00;;;13.13;;
69629;SDS011;56857;52.212;5.496;2023-03-19T15:47:33;28.13;;;14.25;;
69629;SDS011;56857;52.212;5.496;2023-03-19T15:50:08;27.67;;;13.82;;
69629;SDS011;56857;52.212;5.496;2023-03-19T15:52:40;28.70;;;13.95;;
69629;SDS011;56857;52.212;5.496;2023-03-19T15:55:09;26.85;;;13.52;;
69629;SDS011;56857;52.212;5.496;2023-03-19T15:57:37;27.77;;;12.90;;
69629;SDS011;56857;52.212;5.496;2023-03-19T16:00:06;29.88;;;14.02;;
69629;SDS011;56857;52.212;5.496;2023-03-19T16:02:33;25.40;;;13.18;;
69629;SDS011;56857;52.212;5.496;2023-03-19T16:04:59;28.13;;;13.73;;
69629;SDS011;56857;52.212;5.496;2023-03-19T16:07:33;31.00;;;13.95;;
69629;SDS011;56857;52.212;5.496;2023-03-19T16:13:25;25.48;;;13.68;;
69629;SDS011;56857;52.212;5.496;2023-03-19T16:15:54;27.75;;;12.75;;
69629;SDS011;56857;52.212;5.496;2023-03-19T16:18:21;26.35;;;13.15;;
69629;SDS011;56857;52.212;5.496;2023-03-19T16:20:56;28.73;;;14.73;;
69629;SDS011;56857;52.212;5.496;2023-03-19T16:23:22;30.73;;;14.98;;
69629;SDS011;56857;52.212;5.496;2023-03-19T16:26:24;31.05;;;15.32;;
69629;SDS011;56857;52.212;5.496;2023-03-19T16:29:02;31.52;;;15.70;;
69629;SDS011;56857;52.212;5.496;2023-03-19T16:31:28;35.22;;;18.52;;